createdAt,value
2018-06-11T00:00:08.153Z,14.57
2018-06-11T00:02:36.149Z,16.07
2018-06-11T00:05:04.185Z,15.10
2018-06-11T00:07:32.265Z,16.20
2018-06-11T00:10:00.274Z,17.13
2018-06-11T00:12:28.326Z,16.83
2018-06-11T00:14:56.353Z,17.13
2018-06-11T00:17:24.357Z,15.67
2018-06-11T00:19:52.376Z,16.47
2018-06-11T00:22:20.367Z,15.23
2018-06-11T00:24:48.394Z,15.13
2018-06-11T00:27:16.409Z,14.70
2018-06-11T00:29:45.064Z,14.83
2018-06-11T00:32:13.064Z,14.30
2018-06-11T00:34:41.056Z,14.50
2018-06-11T00:37:09.068Z,14.80
2018-06-11T00:39:37.465Z,14.50
2018-06-11T00:42:05.493Z,14.57
2018-06-11T00:44:33.529Z,14.30
2018-06-11T00:47:01.585Z,13.40
2018-06-11T00:49:29.641Z,12.70
2018-06-11T00:51:57.679Z,13.83
2018-06-11T00:54:25.666Z,12.70
2018-06-11T00:56:53.661Z,13.33
2018-06-11T00:59:21.728Z,13.17
2018-06-11T01:01:49.735Z,13.70
2018-06-11T01:04:17.737Z,12.17
2018-06-11T01:06:45.735Z,12.57
2018-06-11T01:09:13.715Z,14.40
2018-06-11T01:11:41.708Z,13.00
2018-06-11T01:14:09.839Z,12.70
2018-06-11T01:16:37.872Z,12.40
2018-06-11T01:19:05.981Z,11.77
2018-06-11T01:21:33.996Z,13.57
2018-06-11T01:24:02.053Z,13.00
2018-06-11T01:26:30.046Z,11.90
2018-06-11T01:28:58.258Z,14.10
2018-06-11T01:31:26.283Z,13.00
2018-06-11T01:33:54.281Z,13.30
2018-06-11T01:36:22.293Z,13.37
2018-06-11T01:38:50.295Z,13.47
2018-06-11T01:41:18.332Z,13.37
2018-06-11T01:43:46.368Z,12.50
2018-06-11T01:46:14.424Z,13.47
2018-06-11T01:48:42.424Z,12.90
2018-06-11T01:51:10.438Z,13.17
2018-06-11T01:53:38.436Z,13.50
2018-06-11T01:56:06.892Z,12.73
2018-06-11T01:58:34.955Z,12.80
2018-06-11T02:01:02.964Z,12.10
2018-06-11T02:03:30.945Z,10.97
2018-06-11T02:05:58.942Z,12.23
2018-06-11T02:08:26.948Z,12.00
2018-06-11T02:10:54.980Z,11.40
2018-06-11T02:13:22.983Z,12.10
2018-06-11T02:15:50.989Z,11.80
2018-06-11T02:18:19.096Z,12.00
2018-06-11T02:20:47.101Z,11.80
2018-06-11T02:23:15.120Z,11.50
2018-06-11T02:25:43.177Z,11.60
2018-06-11T02:28:11.206Z,11.30
2018-06-11T02:30:39.193Z,10.30
2018-06-11T02:33:07.321Z,10.30
2018-06-11T02:35:35.413Z,10.80
2018-06-11T02:38:03.433Z,10.97
2018-06-11T02:40:31.426Z,10.53
2018-06-11T02:42:59.440Z,10.60
2018-06-11T02:45:27.482Z,10.57
2018-06-11T02:47:55.537Z,11.03
2018-06-11T02:50:23.541Z,11.67
2018-06-11T02:52:51.569Z,11.67
2018-06-11T02:55:19.653Z,10.13
2018-06-11T02:57:47.689Z,11.10
2018-06-11T03:00:15.706Z,12.00
2018-06-11T03:02:43.701Z,11.80
2018-06-11T03:05:11.714Z,11.07
2018-06-11T03:07:39.809Z,10.93
2018-06-11T03:10:07.816Z,10.90
2018-06-11T03:12:35.947Z,10.30
2018-06-11T03:15:03.996Z,10.60
2018-06-11T03:17:32.137Z,12.37
2018-06-11T03:20:00.174Z,11.03
2018-06-11T03:22:28.269Z,9.80
2018-06-11T03:24:56.292Z,10.53
2018-06-11T03:27:24.317Z,9.70
2018-06-11T03:29:52.328Z,10.77
2018-06-11T03:32:20.341Z,8.83
2018-06-11T03:34:48.357Z,10.00
2018-06-11T03:37:16.496Z,10.20
2018-06-11T03:39:44.504Z,9.30
2018-06-11T03:42:12.653Z,10.37
2018-06-11T03:44:40.668Z,10.37
2018-06-11T03:47:08.684Z,10.03
2018-06-11T03:49:36.696Z,10.03
2018-06-11T03:52:04.724Z,9.47
2018-06-11T03:54:32.788Z,10.13
2018-06-11T03:57:00.887Z,10.70
2018-06-11T03:59:28.899Z,10.63
2018-06-11T04:01:56.888Z,10.27
2018-06-11T04:04:24.949Z,9.80
2018-06-11T04:06:52.967Z,9.00
2018-06-11T04:09:21.128Z,9.03
2018-06-11T04:11:49.145Z,9.70
2018-06-11T04:14:17.193Z,9.77
2018-06-11T04:16:45.181Z,8.97
2018-06-11T04:19:13.180Z,8.40
2018-06-11T04:21:41.217Z,8.17
2018-06-11T04:24:09.244Z,8.77
2018-06-11T04:26:37.265Z,8.57
2018-06-11T04:29:05.369Z,8.77
2018-06-11T04:31:33.409Z,9.60
2018-06-11T04:34:01.442Z,9.60
2018-06-11T04:36:29.512Z,7.80
2018-06-11T04:38:57.543Z,8.73
2018-06-11T04:41:25.559Z,8.40
2018-06-11T04:43:53.647Z,9.23
2018-06-11T04:46:21.638Z,9.03
2018-06-11T04:48:49.669Z,10.27
2018-06-11T04:51:17.664Z,9.27
2018-06-11T04:53:45.673Z,9.87
2018-06-11T04:56:13.680Z,9.80
2018-06-11T04:58:41.704Z,8.40
2018-06-11T05:01:09.708Z,9.00
2018-06-11T05:03:37.717Z,8.03
2018-06-11T05:06:06.000Z,8.57
2018-06-11T05:08:34.020Z,8.90
2018-06-11T05:11:02.075Z,9.37
2018-06-11T05:13:30.109Z,9.87
2018-06-11T05:15:58.116Z,8.90
2018-06-11T05:18:26.136Z,8.97
2018-06-11T05:20:54.145Z,9.30
2018-06-11T05:23:22.220Z,8.97
2018-06-11T05:25:50.259Z,9.37
2018-06-11T05:28:18.257Z,10.00
2018-06-11T05:30:46.346Z,9.03
2018-06-11T05:33:14.329Z,9.60
2018-06-11T05:35:42.363Z,9.00
2018-06-11T05:38:10.353Z,8.90
2018-06-11T05:40:38.395Z,9.20
2018-06-11T05:43:06.382Z,8.60
2018-06-11T05:45:34.392Z,8.50
2018-06-11T05:48:02.456Z,8.67
2018-06-11T05:50:30.456Z,9.07
2018-06-11T05:52:58.457Z,8.43
2018-06-11T05:55:26.498Z,8.70
2018-06-11T05:57:55.106Z,8.43
2018-06-11T06:00:23.120Z,8.63
2018-06-11T06:02:51.185Z,7.53
2018-06-11T06:05:19.208Z,7.93
2018-06-11T06:07:47.204Z,8.50
2018-06-11T06:10:15.217Z,7.90
2018-06-11T06:12:43.229Z,8.70
2018-06-11T06:15:11.261Z,8.60
2018-06-11T06:17:39.264Z,8.73
2018-06-11T06:20:07.276Z,7.40
2018-06-11T06:22:35.273Z,7.13
2018-06-11T06:25:03.325Z,7.90
2018-06-11T06:27:31.334Z,8.37
2018-06-11T06:30:01.056Z,7.53
2018-06-11T06:32:29.067Z,8.10
2018-06-11T06:34:57.085Z,7.50
2018-06-11T06:37:25.199Z,5.80
2018-06-11T06:39:53.213Z,5.60
2018-06-11T06:42:21.220Z,4.60
2018-06-11T06:44:49.221Z,3.40
2018-06-11T06:47:17.249Z,3.43
2018-06-11T06:49:45.309Z,3.30
2018-06-11T06:52:13.321Z,2.90
2018-06-11T06:54:41.377Z,2.53
2018-06-11T06:57:09.424Z,2.10
2018-06-11T06:59:37.427Z,2.57
2018-06-11T07:02:05.632Z,2.73
2018-06-11T07:04:33.744Z,2.80
2018-06-11T07:07:01.733Z,3.40
2018-06-11T07:09:29.770Z,2.87
2018-06-11T07:11:57.941Z,2.70
2018-06-11T07:14:25.976Z,2.50
2018-06-11T07:16:54.013Z,3.07
2018-06-11T07:19:22.017Z,2.80
2018-06-11T07:21:50.056Z,2.73
2018-06-11T07:24:18.093Z,3.10
2018-06-11T07:26:46.166Z,2.63
2018-06-11T07:29:14.153Z,2.67
2018-06-11T07:31:42.233Z,2.60
2018-06-11T07:34:10.240Z,2.77
2018-06-11T07:36:38.293Z,2.97
2018-06-11T07:39:07.712Z,2.63
2018-06-11T07:41:36.151Z,1.83
2018-06-11T07:44:04.360Z,3.00
2018-06-11T07:46:32.357Z,3.00
2018-06-11T07:49:00.399Z,2.60
2018-06-11T07:51:28.416Z,2.07
2018-06-11T07:53:56.463Z,2.27
2018-06-11T07:56:24.508Z,2.40
2018-06-11T07:58:52.574Z,2.67
2018-06-11T08:01:20.645Z,2.03
2018-06-11T08:03:49.544Z,2.53
2018-06-11T08:06:18.489Z,3.17
2018-06-11T08:08:46.492Z,3.23
2018-06-11T08:11:14.521Z,2.00
2018-06-11T08:13:42.593Z,2.90
2018-06-11T08:16:10.669Z,2.77
2018-06-11T08:18:38.691Z,2.47
2018-06-11T08:21:06.716Z,3.10
2018-06-11T08:23:34.789Z,2.60
2018-06-11T08:26:02.806Z,2.80
2018-06-11T08:28:31.281Z,2.67
2018-06-11T08:30:59.301Z,4.00
2018-06-11T08:33:27.321Z,2.53
2018-06-11T08:35:55.348Z,2.70
2018-06-11T08:38:23.373Z,2.63
2018-06-11T08:40:51.398Z,2.43
2018-06-11T08:43:19.494Z,2.67
2018-06-11T08:45:47.505Z,2.50
2018-06-11T08:48:15.577Z,3.93
2018-06-11T08:50:43.652Z,3.00
2018-06-11T08:53:11.714Z,2.60
2018-06-11T08:55:39.742Z,3.03
2018-06-11T08:58:07.793Z,2.93
2018-06-11T09:00:35.847Z,2.60
2018-06-11T09:03:03.891Z,2.83
2018-06-11T09:05:31.881Z,3.13
2018-06-11T09:08:00.165Z,2.77
2018-06-11T09:10:28.193Z,2.80
2018-06-11T09:12:56.224Z,2.80
2018-06-11T09:15:24.232Z,3.33
2018-06-11T09:17:52.313Z,2.13
2018-06-11T09:20:20.314Z,3.47
2018-06-11T09:22:48.356Z,2.60
2018-06-11T09:25:16.360Z,3.47
2018-06-11T09:27:44.353Z,3.77
2018-06-11T09:30:12.398Z,3.08
2018-06-11T09:32:40.598Z,3.00
2018-06-11T09:35:08.628Z,2.80
2018-06-11T09:37:36.670Z,2.60
2018-06-11T09:40:05.067Z,2.60
2018-06-11T09:42:33.072Z,2.80
2018-06-11T09:45:01.073Z,3.00
2018-06-11T09:47:29.069Z,2.47
2018-06-11T09:49:57.073Z,2.53
2018-06-11T09:52:25.093Z,3.13
2018-06-11T09:54:53.125Z,2.70
2018-06-11T09:57:21.145Z,3.07
2018-06-11T09:59:49.150Z,4.30
2018-06-11T10:02:17.161Z,2.43
2018-06-11T10:04:45.185Z,2.90
2018-06-11T10:07:13.225Z,2.53
2018-06-11T10:09:41.305Z,2.97
2018-06-11T10:12:09.399Z,2.80
2018-06-11T10:14:37.401Z,2.83
2018-06-11T10:17:05.442Z,2.40
2018-06-11T10:19:33.450Z,2.60
2018-06-11T10:22:01.463Z,2.47
2018-06-11T10:24:29.496Z,2.60
2018-06-11T10:26:57.572Z,2.60
2018-06-11T10:29:25.622Z,2.27
2018-06-11T10:31:53.608Z,2.53
2018-06-11T10:34:21.646Z,2.80
2018-06-11T10:36:49.664Z,2.50
2018-06-11T10:39:17.696Z,2.57
2018-06-11T10:41:45.708Z,3.13
2018-06-11T10:44:13.744Z,2.53
2018-06-11T10:46:41.753Z,2.37
2018-06-11T10:49:09.813Z,2.70
2018-06-11T10:51:37.791Z,2.77
2018-06-11T10:54:06.069Z,3.37
2018-06-11T10:56:34.209Z,2.70
2018-06-11T10:59:02.234Z,3.07
2018-06-11T11:01:30.260Z,2.60
2018-06-11T11:03:58.277Z,2.77
2018-06-11T11:06:26.287Z,2.77
2018-06-11T11:08:54.340Z,2.17
2018-06-11T11:11:22.344Z,2.93
2018-06-11T11:13:50.369Z,2.63
2018-06-11T11:16:18.420Z,3.23
2018-06-11T11:18:46.445Z,2.90
2018-06-11T11:21:14.604Z,2.90
2018-06-11T11:23:42.641Z,3.87
2018-06-11T11:26:10.637Z,2.77
2018-06-11T11:28:38.666Z,3.53
2018-06-11T11:31:06.678Z,3.00
2018-06-11T11:33:34.758Z,3.00
2018-06-11T11:36:02.765Z,3.33
2018-06-11T11:38:30.832Z,2.70
2018-06-11T11:40:58.848Z,3.20
2018-06-11T11:43:26.846Z,2.50
2018-06-11T11:45:54.870Z,2.80
2018-06-11T11:48:22.883Z,2.80
2018-06-11T11:50:50.928Z,2.50
2018-06-11T11:53:19.078Z,2.63
2018-06-11T11:55:47.098Z,2.63
2018-06-11T11:58:15.083Z,3.10
2018-06-11T12:00:43.077Z,2.23
2018-06-11T12:03:11.112Z,2.80
2018-06-11T12:05:39.079Z,2.70
2018-06-11T12:08:07.084Z,2.43
2018-06-11T12:10:35.118Z,2.37
2018-06-11T12:13:03.176Z,2.60
2018-06-11T12:15:31.226Z,2.43
2018-06-11T12:17:59.245Z,2.93
2018-06-11T12:20:27.243Z,2.60
2018-06-11T12:22:55.304Z,3.43
2018-06-11T12:25:23.441Z,2.77
2018-06-11T12:27:51.448Z,2.60
2018-06-11T12:30:19.473Z,3.20
2018-06-11T12:32:47.495Z,3.17
2018-06-11T12:35:15.497Z,2.37
2018-06-11T12:37:43.582Z,2.53
2018-06-11T12:40:11.607Z,3.13
2018-06-11T12:42:39.579Z,3.50
2018-06-11T12:45:07.581Z,2.90
2018-06-11T12:47:35.842Z,3.00
2018-06-11T12:50:03.825Z,2.37
2018-06-11T12:52:31.796Z,2.70
2018-06-11T12:54:59.814Z,2.60
2018-06-11T12:57:29.610Z,3.00
2018-06-11T12:59:57.652Z,2.70
2018-06-11T13:02:25.724Z,2.80
2018-06-11T13:04:53.756Z,2.67
2018-06-11T13:07:21.800Z,2.80
2018-06-11T13:09:49.832Z,2.90
2018-06-11T13:12:17.924Z,2.80
2018-06-11T13:14:45.977Z,3.07
2018-06-11T13:17:14.000Z,2.50
2018-06-11T13:19:42.060Z,2.67
2018-06-11T13:22:10.107Z,2.50
2018-06-11T13:24:39.135Z,2.57
2018-06-11T13:27:07.128Z,3.00
2018-06-11T13:29:35.179Z,2.90
2018-06-11T13:32:03.189Z,3.27
2018-06-11T13:34:31.199Z,2.93
2018-06-11T13:36:59.349Z,3.13
2018-06-11T13:39:27.416Z,2.43
2018-06-11T13:41:55.467Z,3.33
2018-06-11T13:44:23.480Z,2.40
2018-06-11T13:46:51.493Z,2.43
2018-06-11T13:49:19.501Z,2.90
2018-06-11T13:51:47.530Z,2.80
2018-06-11T13:54:15.535Z,3.00
2018-06-11T13:56:44.733Z,4.07
2018-06-11T13:59:12.786Z,2.70
2018-06-11T14:01:40.832Z,2.80
2018-06-11T14:04:08.846Z,3.00
2018-06-11T14:06:36.896Z,3.57
2018-06-11T14:09:07.368Z,2.90
2018-06-11T14:11:35.502Z,2.77
2018-06-11T14:14:04.278Z,2.80
2018-06-11T14:16:32.288Z,2.90
2018-06-11T14:19:00.320Z,3.50
2018-06-11T14:21:28.349Z,3.37
2018-06-11T14:23:56.404Z,3.40
2018-06-11T14:26:24.432Z,3.60
2018-06-11T14:28:52.402Z,3.40
2018-06-11T14:31:20.498Z,3.40
2018-06-11T14:33:48.477Z,2.87
2018-06-11T14:36:16.641Z,2.60
2018-06-11T14:38:44.690Z,2.90
2018-06-11T14:41:12.760Z,2.87
2018-06-11T14:43:40.701Z,3.00
2018-06-11T14:46:08.708Z,3.50
2018-06-11T14:48:36.741Z,4.37
2018-06-11T14:51:04.822Z,3.27
2018-06-11T14:53:32.838Z,3.30
2018-06-11T14:56:00.989Z,3.03
2018-06-11T14:58:29.017Z,3.27
2018-06-11T15:00:57.041Z,3.10
2018-06-11T15:03:25.055Z,3.00
2018-06-11T15:05:53.140Z,3.13
2018-06-11T15:08:21.333Z,3.60
2018-06-11T15:10:49.484Z,3.30
2018-06-11T15:13:17.577Z,3.30
2018-06-11T15:15:45.619Z,3.53
2018-06-11T15:18:13.605Z,3.77
2018-06-11T15:20:41.729Z,4.23
2018-06-11T15:23:09.737Z,4.07
2018-06-11T15:25:37.821Z,6.20
2018-06-11T15:28:05.888Z,4.30
2018-06-11T15:30:33.952Z,3.97
2018-06-11T15:33:01.957Z,3.83
2018-06-11T15:35:29.963Z,3.30
2018-06-11T15:37:57.982Z,4.23
2018-06-11T15:40:26.025Z,4.17
2018-06-11T15:42:54.029Z,4.20
2018-06-11T15:45:22.024Z,3.53
2018-06-11T15:47:50.140Z,3.30
2018-06-11T15:50:18.197Z,3.27
2018-06-11T15:52:46.257Z,3.10
2018-06-11T15:55:14.236Z,3.10
2018-06-11T15:57:42.349Z,2.87
2018-06-11T16:00:10.585Z,2.70
2018-06-11T16:02:38.681Z,2.53
2018-06-11T16:05:06.697Z,2.40
2018-06-11T16:07:34.717Z,2.27
2018-06-11T16:10:02.736Z,3.40
2018-06-11T16:12:30.765Z,2.73
2018-06-11T16:14:58.840Z,2.23
2018-06-11T16:17:26.884Z,2.70
2018-06-11T16:19:54.973Z,2.93
2018-06-11T16:22:23.031Z,3.07
2018-06-11T16:24:51.004Z,2.87
2018-06-11T16:27:19.021Z,3.63
2018-06-11T16:29:47.038Z,3.63
2018-06-11T16:32:15.050Z,4.07
2018-06-11T16:34:43.124Z,2.53
2018-06-11T16:37:11.157Z,3.00
2018-06-11T16:39:39.332Z,2.67
2018-06-11T16:42:07.354Z,3.20
2018-06-11T16:44:35.344Z,2.90
2018-06-11T16:47:03.408Z,3.13
2018-06-11T16:49:31.453Z,3.20
2018-06-11T16:51:59.513Z,2.80
2018-06-11T16:54:27.520Z,2.83
2018-06-11T16:56:55.540Z,3.43
2018-06-11T16:59:23.580Z,3.97
2018-06-11T17:01:51.596Z,3.60
2018-06-11T17:04:19.605Z,3.00
2018-06-11T17:06:47.678Z,3.87
2018-06-11T17:09:15.716Z,3.30
2018-06-11T17:11:43.760Z,3.50
2018-06-11T17:14:11.888Z,3.47
2018-06-11T17:16:39.948Z,3.60
2018-06-11T17:19:07.960Z,2.90
2018-06-11T17:21:36.011Z,3.10
2018-06-11T17:24:04.031Z,3.80
2018-06-11T17:26:32.025Z,3.80
2018-06-11T17:29:00.050Z,3.10
2018-06-11T17:31:28.056Z,3.40
2018-06-11T17:33:56.057Z,3.23
2018-06-11T17:36:24.092Z,4.40
2018-06-11T17:38:52.140Z,4.10
2018-06-11T17:41:20.172Z,3.27
2018-06-11T17:43:48.188Z,3.43
2018-06-11T17:46:16.193Z,4.00
2018-06-11T17:48:44.222Z,3.70
2018-06-11T17:51:12.267Z,3.57
2018-06-11T17:53:40.264Z,3.70
2018-06-11T17:56:08.313Z,3.70
2018-06-11T17:58:36.390Z,4.13
2018-06-11T18:01:04.359Z,4.00
2018-06-11T18:03:32.449Z,3.23
2018-06-11T18:06:00.490Z,3.23
2018-06-11T18:08:28.588Z,3.80
2018-06-11T18:10:56.618Z,4.00
2018-06-11T18:13:24.627Z,4.27
2018-06-11T18:15:51.784Z,3.87
2018-06-11T18:18:19.955Z,3.67
2018-06-11T18:20:48.034Z,4.83
2018-06-11T18:23:16.070Z,3.83
2018-06-11T18:25:44.084Z,4.40
2018-06-11T18:28:12.152Z,4.27
2018-06-11T18:30:40.245Z,3.63
2018-06-11T18:33:08.296Z,3.80
2018-06-11T18:35:36.357Z,3.87
2018-06-11T18:38:04.392Z,3.47
2018-06-11T18:40:32.884Z,4.60
2018-06-11T18:43:01.980Z,3.80
2018-06-11T18:45:30.064Z,3.20
2018-06-11T18:47:59.556Z,3.27
2018-06-11T18:50:28.070Z,3.17
2018-06-11T18:52:56.138Z,3.67
2018-06-11T18:55:24.207Z,4.03
2018-06-11T18:57:52.441Z,3.93
2018-06-11T19:00:20.465Z,3.97
2018-06-11T19:02:48.469Z,4.37
2018-06-11T19:05:16.553Z,4.87
2018-06-11T19:07:44.612Z,4.53
2018-06-11T19:10:12.709Z,4.30
2018-06-11T19:12:40.778Z,3.73
2018-06-11T19:15:08.859Z,5.80
2018-06-11T19:17:36.861Z,5.00
2018-06-11T19:20:04.941Z,4.47
2018-06-11T19:22:32.982Z,4.70
2018-06-11T19:25:01.089Z,4.53
2018-06-11T19:27:29.103Z,4.03
2018-06-11T19:29:57.096Z,4.87
2018-06-11T19:32:25.120Z,4.30
2018-06-11T19:34:53.168Z,5.07
2018-06-11T19:37:21.231Z,4.70
2018-06-11T19:39:49.317Z,4.90
2018-06-11T19:42:17.376Z,4.30
2018-06-11T19:44:45.785Z,4.90
2018-06-11T19:47:13.800Z,5.33
2018-06-11T19:49:41.809Z,5.40
2018-06-11T19:52:09.897Z,6.40
2018-06-11T19:54:38.940Z,5.50
2018-06-11T19:57:07.077Z,5.73
2018-06-11T19:59:35.211Z,5.40
2018-06-11T20:02:03.429Z,5.37
2018-06-11T20:04:31.484Z,6.67
2018-06-11T20:06:59.581Z,5.53
2018-06-11T20:09:27.660Z,5.53
2018-06-11T20:11:55.674Z,6.00
2018-06-11T20:14:23.818Z,6.07
2018-06-11T20:16:51.835Z,5.90
2018-06-11T20:19:19.998Z,5.80
2018-06-11T20:21:47.955Z,5.93
2018-06-11T20:24:16.046Z,5.63
2018-06-11T20:26:44.037Z,5.60
2018-06-11T20:29:12.038Z,6.07
2018-06-11T20:31:40.034Z,6.57
2018-06-11T20:34:08.048Z,6.43
2018-06-11T20:36:36.051Z,5.57
2018-06-11T20:39:06.050Z,6.13
2018-06-11T20:41:34.085Z,6.40
2018-06-11T20:44:02.072Z,6.10
2018-06-11T20:46:30.195Z,6.30
2018-06-11T20:48:58.250Z,6.27
2018-06-11T20:51:26.302Z,6.80
2018-06-11T20:53:54.308Z,5.80
2018-06-11T20:56:22.342Z,6.17
2018-06-11T20:58:50.400Z,7.00
2018-06-11T21:01:19.515Z,6.00
2018-06-11T21:03:47.516Z,6.83
2018-06-11T21:06:15.556Z,6.80
2018-06-11T21:08:43.624Z,6.57
2018-06-11T21:11:11.636Z,7.07
2018-06-11T21:13:39.681Z,7.37
2018-06-11T21:16:07.697Z,8.60
2018-06-11T21:18:35.686Z,7.10
2018-06-11T21:21:03.751Z,7.00
2018-06-11T21:23:31.785Z,7.77
2018-06-11T21:25:59.776Z,7.20
2018-06-11T21:28:27.780Z,7.43
2018-06-11T21:30:55.777Z,6.73
2018-06-11T21:33:23.800Z,7.53
2018-06-11T21:35:51.810Z,7.00
2018-06-11T21:38:19.957Z,7.33
2018-06-11T21:40:47.994Z,7.10
2018-06-11T21:43:16.005Z,6.90
2018-06-11T21:45:44.295Z,6.53
2018-06-11T21:48:12.331Z,6.47
2018-06-11T21:50:40.405Z,7.30
2018-06-11T21:53:08.408Z,6.70
2018-06-11T21:55:36.442Z,8.37
2018-06-11T21:58:04.446Z,6.80
2018-06-11T22:00:32.429Z,7.47
2018-06-11T22:03:00.416Z,7.83
2018-06-11T22:05:28.470Z,7.40
2018-06-11T22:07:56.515Z,8.00
2018-06-11T22:10:24.486Z,7.47
2018-06-11T22:12:52.803Z,8.07
2018-06-11T22:15:20.848Z,8.30
2018-06-11T22:17:48.860Z,7.10
2018-06-11T22:20:16.873Z,6.67
2018-06-11T22:22:44.896Z,6.70
2018-06-11T22:25:12.923Z,7.20
2018-06-11T22:27:41.133Z,6.90
2018-06-11T22:30:09.127Z,6.87
2018-06-11T22:32:37.124Z,6.43
2018-06-11T22:35:05.153Z,6.70
2018-06-11T22:37:33.144Z,7.47
2018-06-11T22:40:01.157Z,7.10
2018-06-11T22:42:29.145Z,6.60
2018-06-11T22:44:57.116Z,8.40
2018-06-11T22:47:25.101Z,7.03
2018-06-11T22:49:53.144Z,6.30
2018-06-11T22:52:21.180Z,7.30
2018-06-11T22:54:49.208Z,6.80
2018-06-11T22:57:17.203Z,6.10
2018-06-11T22:59:45.232Z,6.40
2018-06-11T23:02:13.201Z,6.70
2018-06-11T23:04:41.193Z,6.20
2018-06-11T23:07:09.204Z,6.20
2018-06-11T23:09:37.316Z,5.30
2018-06-11T23:12:05.328Z,6.60
2018-06-11T23:17:07.724Z,5.30
2018-06-11T23:19:35.773Z,6.20
2018-06-11T23:22:03.845Z,5.60
2018-06-11T23:24:31.860Z,5.80
2018-06-11T23:26:59.873Z,6.40
2018-06-11T23:29:27.857Z,6.00
2018-06-11T23:31:55.860Z,5.67
2018-06-11T23:34:23.840Z,5.90
2018-06-11T23:36:51.844Z,5.60
2018-06-11T23:39:19.821Z,5.93
2018-06-11T23:41:47.814Z,7.10
2018-06-11T23:44:15.792Z,5.80
2018-06-11T23:46:43.777Z,5.37
2018-06-11T23:49:12.599Z,5.97
2018-06-11T23:51:40.576Z,4.53
2018-06-11T23:54:08.581Z,6.33
2018-06-11T23:56:36.601Z,4.70
2018-06-11T23:59:04.637Z,5.00
